sensor_id;sensor_type;location;lat;lon;timestamp;P1;durP1;ratioP1;P2;durP2;ratioP2
18580;SDS011;9420;50.876;7.012;2024-02-26T00:01:02;1.50;;;1.10;;
18580;SDS011;9420;50.876;7.012;2024-02-26T00:03:29;2.80;;;1.23;;
18580;SDS011;9420;50.876;7.012;2024-02-26T00:05:58;3.03;;;1.43;;
18580;SDS011;9420;50.876;7.012;2024-02-26T00:08:25;1.67;;;1.20;;
18580;SDS011;9420;50.876;7.012;2024-02-26T00:10:52;5.10;;;1.60;;
18580;SDS011;9420;50.876;7.012;2024-02-26T00:13:18;4.97;;;1.70;;
18580;SDS011;9420;50.876;7.012;2024-02-26T00:15:47;3.40;;;1.23;;
18580;SDS011;9420;50.876;7.012;2024-02-26T00:18:13;3.60;;;1.83;;
18580;SDS011;9420;50.876;7.012;2024-02-26T00:20:40;2.73;;;1.30;;
18580;SDS011;9420;50.876;7.012;2024-02-26T00:23:09;1.57;;;1.07;;
18580;SDS011;9420;50.876;7.012;2024-02-26T00:25:36;3.73;;;1.57;;
18580;SDS011;9420;50.876;7.012;2024-02-26T00:28:04;2.10;;;1.23;;
18580;SDS011;9420;50.876;7.012;2024-02-26T00:30:31;1.63;;;0.80;;
18580;SDS011;9420;50.876;7.012;2024-02-26T00:32:58;2.33;;;1.20;;
18580;SDS011;9420;50.876;7.012;2024-02-26T00:35:24;1.50;;;0.90;;
18580;SDS011;9420;50.876;7.012;2024-02-26T00:37:51;2.97;;;0.90;;
18580;SDS011;9420;50.876;7.012;2024-02-26T00:40:20;1.40;;;0.80;;
18580;SDS011;9420;50.876;7.012;2024-02-26T00:42:46;1.90;;;1.17;;
18580;SDS011;9420;50.876;7.012;2024-02-26T00:45:13;2.13;;;1.00;;
18580;SDS011;9420;50.876;7.012;2024-02-26T00:47:39;1.47;;;0.60;;
18580;SDS011;9420;50.876;7.012;2024-02-26T00:50:06;2.47;;;0.93;;
18580;SDS011;9420;50.876;7.012;2024-02-26T00:52:34;1.33;;;0.80;;
18580;SDS011;9420;50.876;7.012;2024-02-26T00:55:01;1.77;;;0.80;;
18580;SDS011;9420;50.876;7.012;2024-02-26T00:57:30;1.70;;;0.63;;
18580;SDS011;9420;50.876;7.012;2024-02-26T00:59:57;1.27;;;0.83;;
18580;SDS011;9420;50.876;7.012;2024-02-26T01:02:24;0.83;;;0.50;;
18580;SDS011;9420;50.876;7.012;2024-02-26T01:04:50;1.27;;;0.63;;
18580;SDS011;9420;50.876;7.012;2024-02-26T01:07:17;2.10;;;0.83;;
18580;SDS011;9420;50.876;7.012;2024-02-26T01:09:45;1.30;;;0.70;;
18580;SDS011;9420;50.876;7.012;2024-02-26T01:12:11;1.60;;;0.83;;
18580;SDS011;9420;50.876;7.012;2024-02-26T01:14:39;1.00;;;0.63;;
18580;SDS011;9420;50.876;7.012;2024-02-26T01:17:06;2.37;;;0.87;;
18580;SDS011;9420;50.876;7.012;2024-02-26T01:19:32;1.90;;;0.73;;
18580;SDS011;9420;50.876;7.012;2024-02-26T01:21:59;2.83;;;0.80;;
18580;SDS011;9420;50.876;7.012;2024-02-26T01:24:26;1.03;;;0.60;;
18580;SDS011;9420;50.876;7.012;2024-02-26T01:26:52;1.77;;;0.70;;
18580;SDS011;9420;50.876;7.012;2024-02-26T01:29:19;1.10;;;0.80;;
18580;SDS011;9420;50.876;7.012;2024-02-26T01:31:47;1.90;;;0.93;;
18580;SDS011;9420;50.876;7.012;2024-02-26T01:34:14;1.07;;;0.40;;
18580;SDS011;9420;50.876;7.012;2024-02-26T01:36:40;1.10;;;0.60;;
18580;SDS011;9420;50.876;7.012;2024-02-26T01:39:07;4.63;;;0.70;;
18580;SDS011;9420;50.876;7.012;2024-02-26T01:41:36;1.33;;;0.80;;
18580;SDS011;9420;50.876;7.012;2024-02-26T01:44:03;0.90;;;0.53;;
18580;SDS011;9420;50.876;7.012;2024-02-26T01:46:30;1.10;;;0.63;;
18580;SDS011;9420;50.876;7.012;2024-02-26T01:49:00;1.27;;;0.70;;
18580;SDS011;9420;50.876;7.012;2024-02-26T01:51:28;0.97;;;0.70;;
18580;SDS011;9420;50.876;7.012;2024-02-26T01:53:56;0.60;;;0.40;;
18580;SDS011;9420;50.876;7.012;2024-02-26T01:56:23;1.17;;;0.70;;
18580;SDS011;9420;50.876;7.012;2024-02-26T01:58:55;1.20;;;0.40;;
18580;SDS011;9420;50.876;7.012;2024-02-26T02:01:22;1.50;;;0.80;;
18580;SDS011;9420;50.876;7.012;2024-02-26T02:03:51;1.87;;;0.50;;
18580;SDS011;9420;50.876;7.012;2024-02-26T02:06:19;1.07;;;0.60;;
18580;SDS011;9420;50.876;7.012;2024-02-26T02:08:46;0.83;;;0.40;;
18580;SDS011;9420;50.876;7.012;2024-02-26T02:11:13;1.27;;;0.50;;
18580;SDS011;9420;50.876;7.012;2024-02-26T02:13:41;1.80;;;0.57;;
18580;SDS011;9420;50.876;7.012;2024-02-26T02:16:07;1.33;;;0.97;;
18580;SDS011;9420;50.876;7.012;2024-02-26T02:18:34;1.13;;;0.50;;
18580;SDS011;9420;50.876;7.012;2024-02-26T02:21:02;1.33;;;0.60;;
18580;SDS011;9420;50.876;7.012;2024-02-26T02:23:29;2.10;;;0.93;;
18580;SDS011;9420;50.876;7.012;2024-02-26T02:25:56;1.03;;;0.77;;
18580;SDS011;9420;50.876;7.012;2024-02-26T02:28:24;0.90;;;0.50;;
18580;SDS011;9420;50.876;7.012;2024-02-26T02:30:53;0.83;;;0.57;;
18580;SDS011;9420;50.876;7.012;2024-02-26T02:33:20;0.73;;;0.40;;
18580;SDS011;9420;50.876;7.012;2024-02-26T02:35:48;3.27;;;0.80;;
18580;SDS011;9420;50.876;7.012;2024-02-26T02:38:17;1.17;;;0.53;;
18580;SDS011;9420;50.876;7.012;2024-02-26T02:40:43;2.20;;;0.60;;
18580;SDS011;9420;50.876;7.012;2024-02-26T02:43:10;1.23;;;0.70;;
18580;SDS011;9420;50.876;7.012;2024-02-26T02:45:37;1.50;;;0.50;;
18580;SDS011;9420;50.876;7.012;2024-02-26T02:48:04;1.33;;;0.60;;
18580;SDS011;9420;50.876;7.012;2024-02-26T02:50:31;3.40;;;1.07;;
18580;SDS011;9420;50.876;7.012;2024-02-26T02:52:57;1.03;;;0.60;;
18580;SDS011;9420;50.876;7.012;2024-02-26T02:55:26;4.40;;;0.80;;
18580;SDS011;9420;50.876;7.012;2024-02-26T02:57:53;3.23;;;0.90;;
18580;SDS011;9420;50.876;7.012;2024-02-26T03:00:19;1.63;;;0.80;;
18580;SDS011;9420;50.876;7.012;2024-02-26T03:02:47;1.17;;;0.80;;
18580;SDS011;9420;50.876;7.012;2024-02-26T03:05:14;1.03;;;0.40;;
18580;SDS011;9420;50.876;7.012;2024-02-26T03:07:41;1.10;;;0.67;;
18580;SDS011;9420;50.876;7.012;2024-02-26T03:10:08;0.80;;;0.53;;
18580;SDS011;9420;50.876;7.012;2024-02-26T03:12:36;1.07;;;0.87;;
18580;SDS011;9420;50.876;7.012;2024-02-26T03:15:03;2.43;;;0.70;;
18580;SDS011;9420;50.876;7.012;2024-02-26T03:17:30;2.87;;;1.00;;
18580;SDS011;9420;50.876;7.012;2024-02-26T03:19:56;1.43;;;0.60;;
18580;SDS011;9420;50.876;7.012;2024-02-26T03:22:23;1.20;;;0.77;;
18580;SDS011;9420;50.876;7.012;2024-02-26T03:24:49;1.60;;;0.70;;
18580;SDS011;9420;50.876;7.012;2024-02-26T03:27:16;3.67;;;0.67;;
18580;SDS011;9420;50.876;7.012;2024-02-26T03:29:44;5.20;;;0.67;;
18580;SDS011;9420;50.876;7.012;2024-02-26T03:32:11;0.90;;;0.50;;
18580;SDS011;9420;50.876;7.012;2024-02-26T03:34:37;1.57;;;0.70;;
18580;SDS011;9420;50.876;7.012;2024-02-26T03:37:05;0.93;;;0.37;;
18580;SDS011;9420;50.876;7.012;2024-02-26T03:39:32;1.03;;;0.50;;
18580;SDS011;9420;50.876;7.012;2024-02-26T03:41:59;0.70;;;0.70;;
18580;SDS011;9420;50.876;7.012;2024-02-26T03:44:25;0.70;;;0.57;;
18580;SDS011;9420;50.876;7.012;2024-02-26T03:46:53;1.10;;;0.70;;
18580;SDS011;9420;50.876;7.012;2024-02-26T03:49:20;1.23;;;0.70;;
18580;SDS011;9420;50.876;7.012;2024-02-26T03:51:47;3.17;;;1.00;;
18580;SDS011;9420;50.876;7.012;2024-02-26T03:54:14;0.97;;;0.77;;
18580;SDS011;9420;50.876;7.012;2024-02-26T03:56:41;1.17;;;0.77;;
18580;SDS011;9420;50.876;7.012;2024-02-26T03:59:06;1.30;;;0.60;;
18580;SDS011;9420;50.876;7.012;2024-02-26T04:01:33;2.07;;;0.67;;
18580;SDS011;9420;50.876;7.012;2024-02-26T04:04:01;2.17;;;0.80;;
18580;SDS011;9420;50.876;7.012;2024-02-26T04:06:28;1.67;;;0.80;;
18580;SDS011;9420;50.876;7.012;2024-02-26T04:08:54;1.33;;;0.53;;
18580;SDS011;9420;50.876;7.012;2024-02-26T04:11:21;1.60;;;1.03;;
18580;SDS011;9420;50.876;7.012;2024-02-26T04:13:47;0.60;;;0.57;;
18580;SDS011;9420;50.876;7.012;2024-02-26T04:16:17;2.40;;;0.93;;
18580;SDS011;9420;50.876;7.012;2024-02-26T04:18:43;2.70;;;0.87;;
18580;SDS011;9420;50.876;7.012;2024-02-26T04:21:11;1.93;;;0.70;;
18580;SDS011;9420;50.876;7.012;2024-02-26T04:23:38;2.33;;;0.77;;
18580;SDS011;9420;50.876;7.012;2024-02-26T04:26:05;1.43;;;0.80;;
18580;SDS011;9420;50.876;7.012;2024-02-26T04:28:31;1.60;;;0.80;;
18580;SDS011;9420;50.876;7.012;2024-02-26T04:30:58;2.27;;;0.90;;
18580;SDS011;9420;50.876;7.012;2024-02-26T04:33:24;1.77;;;0.60;;
18580;SDS011;9420;50.876;7.012;2024-02-26T04:35:51;1.67;;;0.60;;
18580;SDS011;9420;50.876;7.012;2024-02-26T04:38:19;2.00;;;0.83;;
18580;SDS011;9420;50.876;7.012;2024-02-26T04:40:47;2.50;;;1.17;;
18580;SDS011;9420;50.876;7.012;2024-02-26T04:43:14;1.40;;;0.70;;
18580;SDS011;9420;50.876;7.012;2024-02-26T04:45:40;1.83;;;1.00;;
18580;SDS011;9420;50.876;7.012;2024-02-26T04:48:07;1.13;;;0.70;;
18580;SDS011;9420;50.876;7.012;2024-02-26T04:50:33;2.10;;;0.80;;
18580;SDS011;9420;50.876;7.012;2024-02-26T04:53:00;1.63;;;1.10;;
18580;SDS011;9420;50.876;7.012;2024-02-26T04:55:28;2.53;;;0.73;;
18580;SDS011;9420;50.876;7.012;2024-02-26T04:57:55;1.20;;;0.53;;
18580;SDS011;9420;50.876;7.012;2024-02-26T05:00:21;1.90;;;1.03;;
18580;SDS011;9420;50.876;7.012;2024-02-26T05:02:48;2.03;;;1.00;;
18580;SDS011;9420;50.876;7.012;2024-02-26T05:05:15;2.20;;;1.07;;
18580;SDS011;9420;50.876;7.012;2024-02-26T05:07:41;1.37;;;0.90;;
18580;SDS011;9420;50.876;7.012;2024-02-26T05:10:08;1.60;;;1.03;;
18580;SDS011;9420;50.876;7.012;2024-02-26T05:12:37;2.00;;;1.17;;
18580;SDS011;9420;50.876;7.012;2024-02-26T05:15:04;1.90;;;1.20;;
18580;SDS011;9420;50.876;7.012;2024-02-26T05:17:31;3.60;;;0.97;;
18580;SDS011;9420;50.876;7.012;2024-02-26T05:19:59;1.27;;;1.10;;
18580;SDS011;9420;50.876;7.012;2024-02-26T05:22:25;2.13;;;1.27;;
18580;SDS011;9420;50.876;7.012;2024-02-26T05:24:52;2.73;;;1.30;;
18580;SDS011;9420;50.876;7.012;2024-02-26T05:27:19;1.90;;;0.97;;
18580;SDS011;9420;50.876;7.012;2024-02-26T05:29:47;1.90;;;1.13;;
18580;SDS011;9420;50.876;7.012;2024-02-26T05:32:13;1.90;;;1.10;;
18580;SDS011;9420;50.876;7.012;2024-02-26T05:34:40;2.87;;;1.20;;
18580;SDS011;9420;50.876;7.012;2024-02-26T05:37:07;1.50;;;0.90;;
18580;SDS011;9420;50.876;7.012;2024-02-26T05:39:33;1.20;;;0.80;;
18580;SDS011;9420;50.876;7.012;2024-02-26T05:42:00;2.00;;;1.00;;
18580;SDS011;9420;50.876;7.012;2024-02-26T05:44:26;2.43;;;1.07;;
18580;SDS011;9420;50.876;7.012;2024-02-26T05:46:55;2.00;;;1.00;;
18580;SDS011;9420;50.876;7.012;2024-02-26T05:49:21;1.20;;;0.80;;
18580;SDS011;9420;50.876;7.012;2024-02-26T05:51:48;1.50;;;1.33;;
18580;SDS011;9420;50.876;7.012;2024-02-26T05:54:15;1.67;;;1.07;;
18580;SDS011;9420;50.876;7.012;2024-02-26T05:56:42;2.33;;;1.07;;
18580;SDS011;9420;50.876;7.012;2024-02-26T05:59:08;3.33;;;1.60;;
18580;SDS011;9420;50.876;7.012;2024-02-26T06:01:35;3.13;;;1.40;;
18580;SDS011;9420;50.876;7.012;2024-02-26T06:04:04;1.40;;;0.83;;
18580;SDS011;9420;50.876;7.012;2024-02-26T06:06:30;2.20;;;1.27;;
18580;SDS011;9420;50.876;7.012;2024-02-26T06:08:57;2.30;;;1.10;;
18580;SDS011;9420;50.876;7.012;2024-02-26T06:11:23;1.80;;;1.43;;
18580;SDS011;9420;50.876;7.012;2024-02-26T06:13:50;1.47;;;1.20;;
18580;SDS011;9420;50.876;7.012;2024-02-26T06:16:17;1.07;;;0.73;;
18580;SDS011;9420;50.876;7.012;2024-02-26T06:18:43;2.00;;;1.40;;
18580;SDS011;9420;50.876;7.012;2024-02-26T06:21:12;4.17;;;1.47;;
18580;SDS011;9420;50.876;7.012;2024-02-26T06:23:38;3.90;;;1.50;;
18580;SDS011;9420;50.876;7.012;2024-02-26T06:26:05;4.53;;;1.80;;
18580;SDS011;9420;50.876;7.012;2024-02-26T06:28:32;2.63;;;1.70;;
18580;SDS011;9420;50.876;7.012;2024-02-26T06:31:00;1.73;;;1.27;;
18580;SDS011;9420;50.876;7.012;2024-02-26T06:33:27;2.47;;;1.20;;
18580;SDS011;9420;50.876;7.012;2024-02-26T06:35:54;5.90;;;1.50;;
18580;SDS011;9420;50.876;7.012;2024-02-26T06:38:22;3.20;;;1.50;;
18580;SDS011;9420;50.876;7.012;2024-02-26T06:40:49;2.50;;;1.40;;
18580;SDS011;9420;50.876;7.012;2024-02-26T06:43:16;2.57;;;1.13;;
18580;SDS011;9420;50.876;7.012;2024-02-26T06:45:42;2.17;;;1.27;;
18580;SDS011;9420;50.876;7.012;2024-02-26T06:48:09;3.07;;;1.60;;
18580;SDS011;9420;50.876;7.012;2024-02-26T06:50:36;3.47;;;1.47;;
18580;SDS011;9420;50.876;7.012;2024-02-26T06:53:02;2.83;;;1.70;;
18580;SDS011;9420;50.876;7.012;2024-02-26T06:55:31;2.30;;;1.53;;
18580;SDS011;9420;50.876;7.012;2024-02-26T06:57:57;2.60;;;1.40;;
18580;SDS011;9420;50.876;7.012;2024-02-26T07:00:24;3.53;;;1.50;;
18580;SDS011;9420;50.876;7.012;2024-02-26T07:02:50;2.30;;;1.60;;
18580;SDS011;9420;50.876;7.012;2024-02-26T07:05:17;3.27;;;2.03;;
18580;SDS011;9420;50.876;7.012;2024-02-26T07:07:44;3.07;;;1.87;;
18580;SDS011;9420;50.876;7.012;2024-02-26T07:10:10;3.97;;;1.67;;
18580;SDS011;9420;50.876;7.012;2024-02-26T07:12:39;4.33;;;1.90;;
18580;SDS011;9420;50.876;7.012;2024-02-26T07:15:05;4.90;;;2.10;;
18580;SDS011;9420;50.876;7.012;2024-02-26T07:17:34;2.27;;;1.70;;
18580;SDS011;9420;50.876;7.012;2024-02-26T07:20:00;4.40;;;2.03;;
18580;SDS011;9420;50.876;7.012;2024-02-26T07:22:29;3.63;;;1.67;;
18580;SDS011;9420;50.876;7.012;2024-02-26T07:24:56;3.50;;;1.83;;
18580;SDS011;9420;50.876;7.012;2024-02-26T07:27:23;2.10;;;1.90;;
18580;SDS011;9420;50.876;7.012;2024-02-26T07:29:51;3.77;;;1.87;;
18580;SDS011;9420;50.876;7.012;2024-02-26T07:32:17;3.23;;;1.90;;
18580;SDS011;9420;50.876;7.012;2024-02-26T07:34:44;2.73;;;1.80;;
18580;SDS011;9420;50.876;7.012;2024-02-26T07:37:10;2.63;;;1.60;;
18580;SDS011;9420;50.876;7.012;2024-02-26T07:39:37;2.33;;;1.83;;
18580;SDS011;9420;50.876;7.012;2024-02-26T07:42:04;2.73;;;1.27;;
18580;SDS011;9420;50.876;7.012;2024-02-26T07:44:31;3.47;;;1.70;;
18580;SDS011;9420;50.876;7.012;2024-02-26T07:47:00;2.97;;;1.97;;
18580;SDS011;9420;50.876;7.012;2024-02-26T07:49:28;2.20;;;1.80;;
18580;SDS011;9420;50.876;7.012;2024-02-26T07:51:54;3.10;;;2.20;;
18580;SDS011;9420;50.876;7.012;2024-02-26T07:54:23;2.73;;;1.93;;
18580;SDS011;9420;50.876;7.012;2024-02-26T07:56:49;3.27;;;1.60;;
18580;SDS011;9420;50.876;7.012;2024-02-26T07:59:16;3.67;;;2.00;;
18580;SDS011;9420;50.876;7.012;2024-02-26T08:01:42;2.93;;;1.93;;
18580;SDS011;9420;50.876;7.012;2024-02-26T08:04:12;5.77;;;1.83;;
18580;SDS011;9420;50.876;7.012;2024-02-26T08:06:38;3.03;;;1.93;;
18580;SDS011;9420;50.876;7.012;2024-02-26T08:09:05;2.13;;;1.70;;
18580;SDS011;9420;50.876;7.012;2024-02-26T08:11:31;3.57;;;2.03;;
18580;SDS011;9420;50.876;7.012;2024-02-26T08:13:58;2.47;;;1.70;;
18580;SDS011;9420;50.876;7.012;2024-02-26T08:16:25;2.30;;;1.53;;
18580;SDS011;9420;50.876;7.012;2024-02-26T08:18:52;3.50;;;1.63;;
18580;SDS011;9420;50.876;7.012;2024-02-26T08:21:20;2.43;;;1.43;;
18580;SDS011;9420;50.876;7.012;2024-02-26T08:23:47;4.47;;;1.87;;
18580;SDS011;9420;50.876;7.012;2024-02-26T08:26:13;3.20;;;1.40;;
18580;SDS011;9420;50.876;7.012;2024-02-26T08:28:40;3.43;;;2.10;;
18580;SDS011;9420;50.876;7.012;2024-02-26T08:31:07;2.53;;;1.87;;
18580;SDS011;9420;50.876;7.012;2024-02-26T08:33:34;1.87;;;1.47;;
18580;SDS011;9420;50.876;7.012;2024-02-26T08:36:03;3.37;;;1.47;;
18580;SDS011;9420;50.876;7.012;2024-02-26T08:38:32;4.03;;;2.30;;
18580;SDS011;9420;50.876;7.012;2024-02-26T08:40:59;3.70;;;2.00;;
18580;SDS011;9420;50.876;7.012;2024-02-26T08:43:26;5.67;;;1.90;;
18580;SDS011;9420;50.876;7.012;2024-02-26T08:45:53;3.03;;;1.80;;
18580;SDS011;9420;50.876;7.012;2024-02-26T08:48:21;3.23;;;2.23;;
18580;SDS011;9420;50.876;7.012;2024-02-26T08:50:47;4.10;;;2.20;;
18580;SDS011;9420;50.876;7.012;2024-02-26T08:53:14;4.90;;;2.27;;
18580;SDS011;9420;50.876;7.012;2024-02-26T08:55:42;2.70;;;1.67;;
18580;SDS011;9420;50.876;7.012;2024-02-26T08:58:08;2.33;;;1.57;;
18580;SDS011;9420;50.876;7.012;2024-02-26T09:00:35;2.90;;;1.90;;
18580;SDS011;9420;50.876;7.012;2024-02-26T09:03:02;3.03;;;2.33;;
18580;SDS011;9420;50.876;7.012;2024-02-26T09:05:29;6.17;;;2.17;;
18580;SDS011;9420;50.876;7.012;2024-02-26T09:07:56;3.13;;;2.23;;
18580;SDS011;9420;50.876;7.012;2024-02-26T09:10:22;2.60;;;1.63;;
18580;SDS011;9420;50.876;7.012;2024-02-26T09:12:50;4.07;;;1.70;;
18580;SDS011;9420;50.876;7.012;2024-02-26T09:15:17;3.23;;;1.90;;
18580;SDS011;9420;50.876;7.012;2024-02-26T09:17:44;4.37;;;2.03;;
18580;SDS011;9420;50.876;7.012;2024-02-26T09:20:11;3.87;;;2.20;;
18580;SDS011;9420;50.876;7.012;2024-02-26T09:22:40;4.97;;;2.17;;
18580;SDS011;9420;50.876;7.012;2024-02-26T09:25:08;4.00;;;2.20;;
18580;SDS011;9420;50.876;7.012;2024-02-26T09:27:34;4.93;;;2.10;;
18580;SDS011;9420;50.876;7.012;2024-02-26T09:30:03;5.53;;;2.00;;
18580;SDS011;9420;50.876;7.012;2024-02-26T09:32:30;3.33;;;2.70;;
18580;SDS011;9420;50.876;7.012;2024-02-26T09:34:57;4.70;;;2.40;;
18580;SDS011;9420;50.876;7.012;2024-02-26T09:37:24;7.90;;;2.57;;
18580;SDS011;9420;50.876;7.012;2024-02-26T09:39:51;4.13;;;2.50;;
18580;SDS011;9420;50.876;7.012;2024-02-26T09:42:18;6.10;;;2.47;;
18580;SDS011;9420;50.876;7.012;2024-02-26T09:44:45;3.57;;;2.33;;
18580;SDS011;9420;50.876;7.012;2024-02-26T09:47:14;4.07;;;2.47;;
18580;SDS011;9420;50.876;7.012;2024-02-26T09:49:42;3.57;;;2.40;;
18580;SDS011;9420;50.876;7.012;2024-02-26T09:52:09;2.63;;;1.90;;
18580;SDS011;9420;50.876;7.012;2024-02-26T09:54:36;4.70;;;2.50;;
18580;SDS011;9420;50.876;7.012;2024-02-26T09:57:03;7.77;;;2.70;;
18580;SDS011;9420;50.876;7.012;2024-02-26T09:59:32;5.60;;;1.93;;
18580;SDS011;9420;50.876;7.012;2024-02-26T10:02:05;5.17;;;2.40;;
18580;SDS011;9420;50.876;7.012;2024-02-26T10:04:36;10.00;;;2.27;;
18580;SDS011;9420;50.876;7.012;2024-02-26T10:07:03;3.90;;;2.27;;
18580;SDS011;9420;50.876;7.012;2024-02-26T10:09:30;3.77;;;2.10;;
18580;SDS011;9420;50.876;7.012;2024-02-26T10:11:58;3.60;;;2.10;;
18580;SDS011;9420;50.876;7.012;2024-02-26T10:14:25;4.27;;;2.43;;
18580;SDS011;9420;50.876;7.012;2024-02-26T10:16:52;9.47;;;2.80;;
18580;SDS011;9420;50.876;7.012;2024-02-26T10:19:25;4.80;;;2.40;;
18580;SDS011;9420;50.876;7.012;2024-02-26T10:21:55;5.47;;;2.50;;
18580;SDS011;9420;50.876;7.012;2024-02-26T10:24:23;4.90;;;2.30;;
18580;SDS011;9420;50.876;7.012;2024-02-26T10:26:50;5.23;;;2.20;;
18580;SDS011;9420;50.876;7.012;2024-02-26T10:29:18;5.83;;;2.47;;
18580;SDS011;9420;50.876;7.012;2024-02-26T10:31:45;7.03;;;2.37;;
18580;SDS011;9420;50.876;7.012;2024-02-26T10:34:11;3.80;;;2.30;;
18580;SDS011;9420;50.876;7.012;2024-02-26T10:36:39;3.83;;;2.30;;
18580;SDS011;9420;50.876;7.012;2024-02-26T10:39:07;2.57;;;2.07;;
18580;SDS011;9420;50.876;7.012;2024-02-26T10:41:34;2.90;;;1.90;;
18580;SDS011;9420;50.876;7.012;2024-02-26T10:44:01;4.00;;;2.50;;
18580;SDS011;9420;50.876;7.012;2024-02-26T10:46:28;2.57;;;1.77;;
18580;SDS011;9420;50.876;7.012;2024-02-26T10:48:54;2.30;;;1.93;;
18580;SDS011;9420;50.876;7.012;2024-02-26T10:51:25;2.07;;;1.70;;
18580;SDS011;9420;50.876;7.012;2024-02-26T10:53:54;3.33;;;1.93;;
18580;SDS011;9420;50.876;7.012;2024-02-26T10:56:24;4.03;;;1.90;;
18580;SDS011;9420;50.876;7.012;2024-02-26T10:58:53;6.87;;;2.20;;
18580;SDS011;9420;50.876;7.012;2024-02-26T11:01:20;2.47;;;1.87;;
18580;SDS011;9420;50.876;7.012;2024-02-26T11:03:48;3.93;;;2.13;;
18580;SDS011;9420;50.876;7.012;2024-02-26T11:06:16;4.40;;;2.27;;
18580;SDS011;9420;50.876;7.012;2024-02-26T11:08:47;3.47;;;2.00;;
18580;SDS011;9420;50.876;7.012;2024-02-26T11:11:14;2.23;;;1.70;;
18580;SDS011;9420;50.876;7.012;2024-02-26T11:13:43;2.83;;;1.90;;
18580;SDS011;9420;50.876;7.012;2024-02-26T11:16:15;3.83;;;1.73;;
18580;SDS011;9420;50.876;7.012;2024-02-26T11:18:44;4.17;;;2.30;;
18580;SDS011;9420;50.876;7.012;2024-02-26T11:21:14;3.43;;;2.17;;
18580;SDS011;9420;50.876;7.012;2024-02-26T11:23:42;2.40;;;1.80;;
18580;SDS011;9420;50.876;7.012;2024-02-26T11:26:09;2.80;;;1.80;;
18580;SDS011;9420;50.876;7.012;2024-02-26T11:28:37;6.73;;;2.70;;
18580;SDS011;9420;50.876;7.012;2024-02-26T11:31:06;5.80;;;2.37;;
18580;SDS011;9420;50.876;7.012;2024-02-26T11:33:34;3.80;;;2.17;;
18580;SDS011;9420;50.876;7.012;2024-02-26T11:36:02;3.20;;;2.07;;
18580;SDS011;9420;50.876;7.012;2024-02-26T11:38:33;5.10;;;2.73;;
18580;SDS011;9420;50.876;7.012;2024-02-26T11:41:00;6.13;;;2.30;;
18580;SDS011;9420;50.876;7.012;2024-02-26T11:46:26;3.17;;;1.70;;
18580;SDS011;9420;50.876;7.012;2024-02-26T11:48:54;2.97;;;2.10;;
18580;SDS011;9420;50.876;7.012;2024-02-26T11:51:24;3.37;;;2.30;;
18580;SDS011;9420;50.876;7.012;2024-02-26T11:53:52;4.20;;;2.67;;
18580;SDS011;9420;50.876;7.012;2024-02-26T11:56:22;5.23;;;2.60;;
18580;SDS011;9420;50.876;7.012;2024-02-26T11:58:59;3.67;;;2.17;;
18580;SDS011;9420;50.876;7.012;2024-02-26T12:01:41;2.70;;;2.30;;
18580;SDS011;9420;50.876;7.012;2024-02-26T12:04:13;3.43;;;2.60;;
18580;SDS011;9420;50.876;7.012;2024-02-26T12:06:43;3.53;;;2.17;;
18580;SDS011;9420;50.876;7.012;2024-02-26T12:09:12;3.07;;;2.00;;
18580;SDS011;9420;50.876;7.012;2024-02-26T12:11:39;3.03;;;2.00;;
18580;SDS011;9420;50.876;7.012;2024-02-26T12:14:09;5.63;;;2.03;;
18580;SDS011;9420;50.876;7.012;2024-02-26T12:16:36;4.47;;;2.53;;
18580;SDS011;9420;50.876;7.012;2024-02-26T12:19:06;4.07;;;2.00;;
18580;SDS011;9420;50.876;7.012;2024-02-26T12:21:33;2.40;;;1.70;;
18580;SDS011;9420;50.876;7.012;2024-02-26T12:24:09;2.47;;;1.67;;
18580;SDS011;9420;50.876;7.012;2024-02-26T12:26:37;3.00;;;1.80;;
18580;SDS011;9420;50.876;7.012;2024-02-26T12:29:03;3.20;;;2.23;;
18580;SDS011;9420;50.876;7.012;2024-02-26T12:31:30;2.57;;;1.93;;
18580;SDS011;9420;50.876;7.012;2024-02-26T12:33:57;4.87;;;2.23;;
18580;SDS011;9420;50.876;7.012;2024-02-26T12:36:26;2.13;;;1.93;;
18580;SDS011;9420;50.876;7.012;2024-02-26T12:38:52;5.17;;;2.97;;
18580;SDS011;9420;50.876;7.012;2024-02-26T12:41:20;3.57;;;2.40;;
18580;SDS011;9420;50.876;7.012;2024-02-26T12:43:47;3.87;;;2.37;;
18580;SDS011;9420;50.876;7.012;2024-02-26T12:46:15;4.07;;;2.20;;
18580;SDS011;9420;50.876;7.012;2024-02-26T12:48:42;3.63;;;2.57;;
18580;SDS011;9420;50.876;7.012;2024-02-26T12:51:10;3.77;;;2.47;;
18580;SDS011;9420;50.876;7.012;2024-02-26T12:53:39;5.40;;;2.20;;
18580;SDS011;9420;50.876;7.012;2024-02-26T12:56:06;3.03;;;2.30;;
18580;SDS011;9420;50.876;7.012;2024-02-26T12:58:34;3.73;;;2.20;;
18580;SDS011;9420;50.876;7.012;2024-02-26T13:01:03;4.63;;;2.63;;
18580;SDS011;9420;50.876;7.012;2024-02-26T13:03:30;5.73;;;2.43;;
18580;SDS011;9420;50.876;7.012;2024-02-26T13:05:58;5.73;;;3.03;;
18580;SDS011;9420;50.876;7.012;2024-02-26T13:08:24;3.57;;;2.20;;
18580;SDS011;9420;50.876;7.012;2024-02-26T13:10:53;4.40;;;2.40;;
18580;SDS011;9420;50.876;7.012;2024-02-26T13:13:19;4.07;;;2.80;;
18580;SDS011;9420;50.876;7.012;2024-02-26T13:15:46;4.07;;;2.90;;
18580;SDS011;9420;50.876;7.012;2024-02-26T13:18:13;3.67;;;2.17;;
18580;SDS011;9420;50.876;7.012;2024-02-26T13:20:39;3.47;;;2.43;;
18580;SDS011;9420;50.876;7.012;2024-02-26T13:23:07;3.10;;;2.27;;
18580;SDS011;9420;50.876;7.012;2024-02-26T13:25:34;3.80;;;2.67;;
18580;SDS011;9420;50.876;7.012;2024-02-26T13:28:07;6.00;;;3.50;;
18580;SDS011;9420;50.876;7.012;2024-02-26T13:30:34;4.27;;;2.57;;
18580;SDS011;9420;50.876;7.012;2024-02-26T13:33:07;3.57;;;2.57;;
18580;SDS011;9420;50.876;7.012;2024-02-26T13:35:35;3.33;;;2.47;;
18580;SDS011;9420;50.876;7.012;2024-02-26T13:38:02;5.27;;;3.40;;
18580;SDS011;9420;50.876;7.012;2024-02-26T13:40:29;5.80;;;2.90;;
18580;SDS011;9420;50.876;7.012;2024-02-26T13:42:55;6.30;;;3.57;;
18580;SDS011;9420;50.876;7.012;2024-02-26T13:45:23;5.27;;;2.83;;
18580;SDS011;9420;50.876;7.012;2024-02-26T13:47:50;3.73;;;2.17;;
18580;SDS011;9420;50.876;7.012;2024-02-26T13:50:16;6.03;;;2.70;;
18580;SDS011;9420;50.876;7.012;2024-02-26T13:52:46;5.60;;;3.50;;
18580;SDS011;9420;50.876;7.012;2024-02-26T13:55:18;6.03;;;3.10;;
18580;SDS011;9420;50.876;7.012;2024-02-26T13:57:44;5.33;;;3.10;;
18580;SDS011;9420;50.876;7.012;2024-02-26T14:00:12;8.07;;;3.93;;
18580;SDS011;9420;50.876;7.012;2024-02-26T14:02:40;4.30;;;2.70;;
18580;SDS011;9420;50.876;7.012;2024-02-26T14:05:07;4.53;;;2.67;;
18580;SDS011;9420;50.876;7.012;2024-02-26T14:07:33;3.83;;;2.50;;
18580;SDS011;9420;50.876;7.012;2024-02-26T14:10:00;4.27;;;2.63;;
18580;SDS011;9420;50.876;7.012;2024-02-26T14:12:27;3.23;;;2.83;;
18580;SDS011;9420;50.876;7.012;2024-02-26T14:14:53;7.77;;;3.03;;
18580;SDS011;9420;50.876;7.012;2024-02-26T14:17:20;5.03;;;3.33;;
18580;SDS011;9420;50.876;7.012;2024-02-26T14:19:49;4.03;;;2.97;;
18580;SDS011;9420;50.876;7.012;2024-02-26T14:22:16;6.23;;;3.30;;
18580;SDS011;9420;50.876;7.012;2024-02-26T14:24:41;5.13;;;3.60;;
18580;SDS011;9420;50.876;7.012;2024-02-26T14:27:08;4.20;;;3.43;;
18580;SDS011;9420;50.876;7.012;2024-02-26T14:29:39;5.73;;;3.50;;
18580;SDS011;9420;50.876;7.012;2024-02-26T14:32:07;4.17;;;3.10;;
18580;SDS011;9420;50.876;7.012;2024-02-26T14:34:33;6.40;;;3.90;;
18580;SDS011;9420;50.876;7.012;2024-02-26T14:37:01;7.13;;;4.27;;
18580;SDS011;9420;50.876;7.012;2024-02-26T14:39:28;5.60;;;4.10;;
18580;SDS011;9420;50.876;7.012;2024-02-26T14:41:56;5.77;;;3.53;;
18580;SDS011;9420;50.876;7.012;2024-02-26T14:44:23;6.90;;;3.90;;
18580;SDS011;9420;50.876;7.012;2024-02-26T14:46:50;5.43;;;3.80;;
18580;SDS011;9420;50.876;7.012;2024-02-26T14:49:17;8.30;;;3.97;;
18580;SDS011;9420;50.876;7.012;2024-02-26T14:51:43;5.27;;;3.73;;
18580;SDS011;9420;50.876;7.012;2024-02-26T14:54:11;5.53;;;4.37;;
18580;SDS011;9420;50.876;7.012;2024-02-26T14:56:38;5.43;;;3.63;;
18580;SDS011;9420;50.876;7.012;2024-02-26T14:59:05;6.80;;;4.13;;
18580;SDS011;9420;50.876;7.012;2024-02-26T15:01:32;6.43;;;4.93;;
18580;SDS011;9420;50.876;7.012;2024-02-26T15:03:59;8.07;;;4.03;;